createdAt,value
2023-01-03T00:00:17.695Z,82.96
2023-01-03T00:01:17.628Z,82.86
2023-01-03T00:02:17.760Z,82.86
2023-01-03T00:03:17.645Z,83.00
2023-01-03T00:04:17.692Z,83.00
2023-01-03T00:05:17.658Z,82.79
2023-01-03T00:06:17.590Z,82.90
2023-01-03T00:07:17.600Z,82.90
2023-01-03T00:08:17.664Z,82.90
2023-01-03T00:09:17.565Z,82.79
2023-01-03T00:10:17.570Z,82.79
2023-01-03T00:11:17.530Z,82.79
2023-01-03T00:12:17.537Z,82.59
2023-01-03T00:13:17.521Z,82.59
2023-01-03T00:14:17.538Z,82.59
2023-01-03T00:15:17.486Z,82.59
2023-01-03T00:16:17.564Z,82.59
2023-01-03T00:17:17.567Z,82.55
2023-01-03T00:18:17.484Z,82.59
2023-01-03T00:19:17.442Z,82.55
2023-01-03T00:20:17.445Z,82.69
2023-01-03T00:21:17.427Z,82.59
2023-01-03T00:22:17.439Z,82.59
2023-01-03T00:23:17.404Z,82.59
2023-01-03T00:24:17.429Z,82.69
2023-01-03T00:25:17.405Z,82.59
2023-01-03T00:26:17.372Z,82.79
2023-01-03T00:27:17.380Z,82.79
2023-01-03T00:28:17.384Z,82.79
2023-01-03T00:29:17.379Z,82.79
2023-01-03T00:30:17.344Z,82.79
2023-01-03T00:31:17.371Z,82.90
2023-01-03T00:32:17.315Z,82.90
2023-01-03T00:33:17.316Z,83.00
2023-01-03T00:34:17.305Z,82.79
2023-01-03T00:35:17.312Z,82.79
2023-01-03T00:36:17.280Z,82.69
2023-01-03T00:37:17.260Z,82.59
2023-01-03T00:38:17.270Z,82.59
2023-01-03T00:39:17.279Z,82.59
2023-01-03T00:40:17.266Z,82.69
2023-01-03T00:41:17.312Z,82.79
2023-01-03T00:42:17.318Z,82.59
2023-01-03T00:43:17.211Z,82.59
2023-01-03T00:44:17.200Z,82.59
2023-01-03T00:45:19.944Z,82.69
2023-01-03T00:46:17.240Z,82.79
2023-01-03T00:47:17.159Z,82.69
2023-01-03T00:48:17.178Z,82.79
2023-01-03T00:49:17.161Z,82.79
2023-01-03T00:50:17.142Z,82.69
2023-01-03T00:51:17.123Z,82.69
2023-01-03T00:52:17.121Z,82.59
2023-01-03T00:53:17.104Z,82.59
2023-01-03T00:54:17.094Z,82.69
2023-01-03T00:55:17.108Z,82.69
2023-01-03T00:56:17.081Z,82.79
2023-01-03T00:57:17.099Z,82.49
2023-01-03T00:58:17.063Z,82.59
2023-01-03T00:59:17.057Z,82.59
2023-01-03T01:00:17.033Z,82.59
2023-01-03T01:01:17.132Z,82.59
2023-01-03T01:02:17.302Z,82.69
2023-01-03T01:03:17.227Z,82.59
2023-01-03T01:04:16.984Z,82.79
2023-01-03T01:05:16.988Z,82.69
2023-01-03T01:06:17.006Z,82.59
2023-01-03T01:07:16.954Z,82.79
2023-01-03T01:08:16.953Z,82.90
2023-01-03T01:09:16.934Z,82.69
2023-01-03T01:10:16.939Z,82.63
2023-01-03T01:11:16.929Z,82.83
2023-01-03T01:12:16.906Z,82.73
2023-01-03T01:13:16.914Z,82.53
2023-01-03T01:14:16.884Z,82.73
2023-01-03T01:15:16.863Z,82.93
2023-01-03T01:16:16.896Z,82.83
2023-01-03T01:17:22.477Z,82.73
2023-01-03T01:18:16.865Z,82.63
2023-01-03T01:19:16.852Z,82.73
2023-01-03T01:20:16.818Z,82.42
2023-01-03T01:21:16.819Z,82.22
2023-01-03T01:22:16.819Z,82.12
2023-01-03T01:23:16.939Z,82.01
2023-01-03T01:24:18.237Z,81.91
2023-01-03T01:25:16.754Z,81.81
2023-01-03T01:26:16.776Z,81.91
2023-01-03T01:27:16.757Z,81.85
2023-01-03T01:28:16.758Z,81.95
2023-01-03T01:29:16.728Z,81.95
2023-01-03T01:30:22.750Z,81.64
2023-01-03T01:31:16.804Z,81.43
2023-01-03T01:32:16.697Z,81.13
2023-01-03T01:33:16.697Z,81.02
2023-01-03T01:34:16.682Z,80.92
2023-01-03T01:35:16.656Z,80.72
2023-01-03T01:36:16.650Z,80.82
2023-01-03T01:37:16.638Z,80.92
2023-01-03T01:38:16.654Z,80.92
2023-01-03T01:39:16.635Z,80.92
2023-01-03T01:40:16.621Z,81.02
2023-01-03T01:41:16.593Z,81.13
2023-01-03T01:42:19.705Z,81.13
2023-01-03T01:43:16.592Z,81.23
2023-01-03T01:44:16.615Z,81.34
2023-01-03T01:45:16.572Z,81.34
2023-01-03T01:46:16.606Z,81.54
2023-01-03T01:47:16.583Z,80.82
2023-01-03T01:48:16.536Z,80.92
2023-01-03T01:49:16.525Z,80.92
2023-01-03T01:50:16.507Z,80.72
2023-01-03T01:51:16.491Z,80.51
2023-01-03T01:52:16.514Z,80.41
2023-01-03T01:53:16.486Z,80.24
2023-01-03T01:54:16.468Z,80.35
2023-01-03T01:55:16.450Z,80.14
2023-01-03T01:56:16.471Z,79.73
2023-01-03T01:57:16.448Z,79.83
2023-01-03T01:58:16.450Z,79.73
2023-01-03T01:59:16.432Z,79.63
2023-01-03T02:00:16.422Z,79.52
2023-01-03T02:01:16.576Z,79.42
2023-01-03T02:02:16.627Z,79.11
2023-01-03T02:03:16.567Z,78.91
2023-01-03T02:04:16.371Z,78.70
2023-01-03T02:05:16.369Z,78.39
2023-01-03T02:06:16.349Z,78.29
2023-01-03T02:07:16.327Z,78.19
2023-01-03T02:08:16.364Z,78.29
2023-01-03T02:09:16.319Z,78.29
2023-01-03T02:10:16.315Z,78.50
2023-01-03T02:11:16.296Z,78.60
2023-01-03T02:12:16.280Z,78.29
2023-01-03T02:13:16.282Z,78.09
2023-01-03T02:14:16.303Z,77.98
2023-01-03T02:15:16.255Z,78.09
2023-01-03T02:16:16.302Z,78.19
2023-01-03T02:17:16.230Z,78.19
2023-01-03T02:18:16.278Z,78.29
2023-01-03T02:19:16.209Z,78.09
2023-01-03T02:20:16.220Z,78.19
2023-01-03T02:21:19.944Z,78.33
2023-01-03T02:22:16.177Z,78.33
2023-01-03T02:23:16.183Z,78.33
2023-01-03T02:24:16.161Z,78.33
2023-01-03T02:25:16.167Z,78.23
2023-01-03T02:26:16.192Z,78.12
2023-01-03T02:27:16.141Z,78.23
2023-01-03T02:28:16.137Z,78.23
2023-01-03T02:29:16.107Z,78.33
2023-01-03T02:30:16.098Z,78.43
2023-01-03T02:31:16.235Z,78.64
2023-01-03T02:32:16.071Z,78.74
2023-01-03T02:33:16.083Z,78.53
2023-01-03T02:34:16.062Z,78.53
2023-01-03T02:35:16.076Z,78.64
2023-01-03T02:36:16.027Z,78.74
2023-01-03T02:37:16.056Z,78.85
2023-01-03T02:38:16.032Z,78.43
2023-01-03T02:39:19.170Z,78.43
2023-01-03T02:40:16.031Z,78.53
2023-01-03T02:41:15.980Z,78.67
2023-01-03T02:42:15.976Z,78.57
2023-01-03T02:43:15.998Z,78.36
2023-01-03T02:44:15.955Z,78.47
2023-01-03T02:45:15.949Z,78.47
2023-01-03T02:46:15.990Z,78.36
2023-01-03T02:47:15.944Z,78.27
2023-01-03T02:48:15.936Z,78.27
2023-01-03T02:49:15.903Z,78.47
2023-01-03T02:50:15.889Z,78.50
2023-01-03T02:51:15.888Z,78.30
2023-01-03T02:52:15.904Z,78.30
2023-01-03T02:53:15.897Z,78.09
2023-01-03T02:54:15.858Z,78.20
2023-01-03T02:55:15.848Z,78.40
2023-01-03T02:56:15.819Z,78.50
2023-01-03T02:57:15.817Z,78.30
2023-01-03T02:58:15.824Z,78.20
2023-01-03T02:59:15.829Z,78.30
2023-01-03T03:00:15.794Z,78.09
2023-01-03T03:01:15.904Z,78.09
2023-01-03T03:02:15.894Z,78.09
2023-01-03T03:03:15.901Z,78.09
2023-01-03T03:04:15.749Z,78.20
2023-01-03T03:05:15.741Z,78.20
2023-01-03T03:06:15.731Z,77.89
2023-01-03T03:07:15.719Z,78.03
2023-01-03T03:08:15.763Z,77.51
2023-01-03T03:09:15.701Z,77.51
2023-01-03T03:10:15.702Z,77.10
2023-01-03T03:11:15.696Z,77.31
2023-01-03T03:12:15.675Z,77.20
2023-01-03T03:13:15.669Z,76.90
2023-01-03T03:14:15.659Z,76.48
2023-01-03T03:15:15.651Z,75.87
2023-01-03T03:16:15.687Z,75.67
2023-01-03T03:17:15.610Z,75.90
2023-01-03T03:18:15.603Z,75.67
2023-01-03T03:19:15.605Z,75.70
2023-01-03T03:20:15.584Z,75.59
2023-01-03T03:21:15.572Z,75.29
2023-01-03T03:22:15.553Z,75.29
2023-01-03T03:23:15.627Z,75.29
2023-01-03T03:24:15.543Z,75.18
2023-01-03T03:25:15.533Z,74.98
2023-01-03T03:26:15.523Z,75.08
2023-01-03T03:27:15.531Z,75.08
2023-01-03T03:28:15.516Z,75.08
2023-01-03T03:29:15.491Z,75.08
2023-01-03T03:30:15.473Z,75.18
2023-01-03T03:31:15.535Z,74.98
2023-01-03T03:32:15.455Z,75.29
2023-01-03T03:33:15.476Z,75.18
2023-01-03T03:34:15.426Z,75.08
2023-01-03T03:35:15.425Z,75.32
2023-01-03T03:36:15.425Z,75.32
2023-01-03T03:37:15.410Z,75.32
2023-01-03T03:38:15.399Z,75.52
2023-01-03T03:39:15.390Z,75.63
2023-01-03T03:40:15.375Z,75.73
2023-01-03T03:41:15.363Z,75.84
2023-01-03T03:42:15.348Z,75.73
2023-01-03T03:43:15.354Z,75.73
2023-01-03T03:44:15.380Z,75.84
2023-01-03T03:45:15.357Z,76.04
2023-01-03T03:46:15.336Z,76.04
2023-01-03T03:47:15.358Z,75.94
2023-01-03T03:48:15.285Z,75.84
2023-01-03T03:49:15.291Z,75.73
2023-01-03T03:50:15.263Z,75.63
2023-01-03T03:51:15.262Z,75.63
2023-01-03T03:52:15.251Z,75.52
2023-01-03T03:53:15.324Z,75.32
2023-01-03T03:54:15.239Z,75.52
2023-01-03T03:55:15.245Z,75.73
2023-01-03T03:56:15.208Z,75.84
2023-01-03T03:57:15.220Z,75.94
2023-01-03T03:58:15.258Z,75.94
2023-01-03T03:59:15.203Z,75.84
2023-01-03T04:00:15.174Z,75.87
2023-01-03T04:01:15.181Z,75.94
2023-01-03T04:02:15.252Z,75.97
2023-01-03T04:03:15.299Z,76.07
2023-01-03T04:04:15.135Z,76.07
2023-01-03T04:05:15.129Z,76.07
2023-01-03T04:06:15.112Z,76.28
2023-01-03T04:07:15.103Z,76.49
2023-01-03T04:08:15.110Z,76.59
2023-01-03T04:09:15.083Z,76.59
2023-01-03T04:10:15.072Z,76.59
2023-01-03T04:11:15.051Z,76.70
2023-01-03T04:12:15.042Z,76.90
2023-01-03T04:13:15.050Z,77.00
2023-01-03T04:14:15.009Z,77.00
2023-01-03T04:15:15.085Z,77.11
2023-01-03T04:16:15.046Z,77.11
2023-01-03T04:17:14.987Z,77.21
2023-01-03T04:18:14.978Z,77.31
2023-01-03T04:19:14.987Z,77.42
2023-01-03T04:20:14.948Z,77.62
2023-01-03T04:21:20.428Z,77.93
2023-01-03T04:22:14.925Z,78.17
2023-01-03T04:23:14.946Z,78.28
2023-01-03T04:24:14.941Z,78.58
2023-01-03T04:25:15.471Z,78.79
2023-01-03T04:26:14.941Z,78.89
2023-01-03T04:27:14.903Z,79.10
2023-01-03T04:28:14.876Z,79.20
2023-01-03T04:29:14.928Z,79.30
2023-01-03T04:30:14.863Z,79.41
2023-01-03T04:31:14.896Z,79.41
2023-01-03T04:32:14.898Z,79.41
2023-01-03T04:33:14.825Z,79.10
2023-01-03T04:34:14.807Z,79.10
2023-01-03T04:35:14.791Z,79.30
2023-01-03T04:36:14.781Z,79.30
2023-01-03T04:37:14.783Z,79.51
2023-01-03T04:38:14.777Z,79.61
2023-01-03T04:39:14.761Z,79.61
2023-01-03T04:40:14.733Z,79.72
2023-01-03T04:41:14.746Z,79.82
2023-01-03T04:42:14.705Z,79.96
2023-01-03T04:43:14.710Z,80.16
2023-01-03T04:44:14.826Z,80.16
2023-01-03T04:45:14.689Z,80.16
2023-01-03T04:46:14.695Z,80.16
2023-01-03T04:47:14.664Z,80.16
2023-01-03T04:48:14.672Z,80.06
2023-01-03T04:49:14.656Z,80.16
2023-01-03T04:50:14.635Z,80.16
2023-01-03T04:51:14.615Z,79.86
2023-01-03T04:52:14.617Z,79.96
2023-01-03T04:53:14.602Z,79.96
2023-01-03T04:54:14.628Z,80.06
2023-01-03T04:55:14.572Z,80.06
2023-01-03T04:56:14.579Z,80.06
2023-01-03T04:57:14.555Z,80.06
2023-01-03T04:58:14.547Z,79.96
2023-01-03T04:59:14.585Z,79.96
2023-01-03T05:00:14.521Z,79.86
2023-01-03T05:01:14.674Z,79.75
2023-01-03T05:02:14.705Z,79.75
2023-01-03T05:03:14.511Z,79.75
2023-01-03T05:04:14.540Z,79.65
2023-01-03T05:05:14.473Z,79.65
2023-01-03T05:06:14.459Z,79.75
2023-01-03T05:07:14.472Z,79.75
2023-01-03T05:08:14.429Z,79.65
2023-01-03T05:09:14.470Z,79.86
2023-01-03T05:10:14.417Z,79.86
2023-01-03T05:11:14.403Z,79.96
2023-01-03T05:12:14.444Z,79.86
2023-01-03T05:13:14.407Z,79.96
2023-01-03T05:14:14.929Z,79.96
2023-01-03T05:15:14.364Z,79.96
2023-01-03T05:16:14.521Z,80.06
2023-01-03T05:17:14.359Z,80.16
2023-01-03T05:18:14.334Z,80.16
2023-01-03T05:19:14.589Z,80.27
2023-01-03T05:20:14.302Z,80.37
2023-01-03T05:21:14.300Z,80.47
2023-01-03T05:22:14.280Z,80.47
2023-01-03T05:23:14.281Z,80.58
2023-01-03T05:24:14.319Z,80.58
2023-01-03T05:25:14.265Z,80.68
2023-01-03T05:26:14.247Z,80.82
2023-01-03T05:27:14.241Z,80.99
2023-01-03T05:28:17.463Z,81.13
2023-01-03T05:29:14.245Z,81.13
2023-01-03T05:30:14.227Z,81.23
2023-01-03T05:31:14.208Z,81.44
2023-01-03T05:32:14.253Z,81.54
2023-01-03T05:33:14.189Z,81.75
2023-01-03T05:34:14.190Z,81.96
2023-01-03T05:35:14.165Z,82.06
2023-01-03T05:36:16.316Z,82.16
2023-01-03T05:37:14.134Z,82.26
2023-01-03T05:38:14.146Z,82.37
2023-01-03T05:39:14.121Z,82.47
2023-01-03T05:40:14.086Z,82.68
2023-01-03T05:41:14.166Z,82.68
2023-01-03T05:42:14.097Z,82.89
2023-01-03T05:43:14.088Z,82.89
2023-01-03T05:44:14.180Z,82.89
2023-01-03T05:45:14.155Z,83.09
2023-01-03T05:46:14.148Z,83.19
2023-01-03T05:47:14.036Z,83.40
2023-01-03T05:48:14.022Z,83.50
2023-01-03T05:49:14.054Z,83.54
2023-01-03T05:50:13.994Z,83.64
2023-01-03T05:51:14.025Z,83.75
2023-01-03T05:52:13.985Z,83.95
2023-01-03T05:53:13.968Z,83.85
2023-01-03T05:54:13.988Z,83.85
2023-01-03T05:55:13.982Z,83.95
2023-01-03T05:56:13.931Z,83.95
2023-01-03T05:57:13.929Z,83.95
2023-01-03T05:58:13.941Z,83.95
2023-01-03T05:59:13.935Z,83.95
2023-01-03T06:00:13.966Z,83.95
2023-01-03T06:01:13.927Z,83.75
2023-01-03T06:02:14.053Z,83.75
2023-01-03T06:03:13.859Z,83.85
2023-01-03T06:04:14.035Z,83.75
2023-01-03T06:05:13.836Z,83.85
2023-01-03T06:06:13.819Z,83.75
2023-01-03T06:07:13.835Z,83.64
2023-01-03T06:08:13.839Z,83.64
2023-01-03T06:09:13.817Z,83.44
2023-01-03T06:10:13.833Z,83.13
2023-01-03T06:11:13.773Z,83.13
2023-01-03T06:12:13.783Z,83.13
2023-01-03T06:13:13.921Z,83.13
2023-01-03T06:14:13.745Z,82.92
2023-01-03T06:15:13.774Z,83.03
2023-01-03T06:16:13.757Z,83.13
2023-01-03T06:17:13.771Z,83.23
2023-01-03T06:18:13.706Z,83.23
2023-01-03T06:19:13.714Z,83.17
2023-01-03T06:20:13.738Z,83.27
2023-01-03T06:21:13.684Z,83.27
2023-01-03T06:22:13.649Z,83.37
2023-01-03T06:23:13.646Z,83.27
2023-01-03T06:24:13.628Z,83.17
2023-01-03T06:25:13.689Z,83.27
2023-01-03T06:26:13.617Z,83.23
2023-01-03T06:27:13.617Z,83.17
2023-01-03T06:28:13.591Z,83.17
2023-01-03T06:29:13.610Z,82.96
2023-01-03T06:30:13.582Z,83.06
2023-01-03T06:31:13.687Z,83.06
2023-01-03T06:32:13.574Z,82.96
2023-01-03T06:33:13.608Z,82.65
2023-01-03T06:34:13.545Z,82.65
2023-01-03T06:35:13.529Z,82.86
2023-01-03T06:36:13.506Z,82.96
2023-01-03T06:37:13.450Z,82.86
2023-01-03T06:38:13.612Z,82.75
2023-01-03T06:39:13.482Z,82.55
2023-01-03T06:40:13.477Z,82.65
2023-01-03T06:41:13.434Z,82.75
2023-01-03T06:42:13.415Z,82.96
2023-01-03T06:43:13.432Z,83.06
2023-01-03T06:44:13.366Z,82.96
2023-01-03T06:45:13.426Z,82.75
2023-01-03T06:46:13.429Z,82.75
2023-01-03T06:47:13.344Z,82.86
2023-01-03T06:48:13.343Z,83.20
2023-01-03T06:49:13.372Z,83.20
2023-01-03T06:50:13.326Z,83.41
2023-01-03T06:51:13.310Z,83.51
2023-01-03T06:52:13.283Z,83.51
2023-01-03T06:53:13.278Z,83.41
2023-01-03T06:54:13.273Z,83.72
2023-01-03T06:55:13.374Z,83.72
2023-01-03T06:56:13.250Z,83.83
2023-01-03T06:57:26.076Z,83.93
2023-01-03T06:58:13.237Z,83.93
2023-01-03T06:59:13.243Z,84.13
2023-01-03T07:00:13.225Z,84.03
2023-01-03T07:01:13.329Z,84.13
2023-01-03T07:02:13.342Z,84.13
2023-01-03T07:03:13.239Z,84.23
2023-01-03T07:04:13.268Z,84.34
2023-01-03T07:05:13.179Z,84.34
2023-01-03T07:06:13.159Z,84.55
2023-01-03T07:07:13.136Z,84.75
2023-01-03T07:08:13.147Z,84.96
2023-01-03T07:09:13.115Z,85.06
2023-01-03T07:10:13.138Z,85.06
2023-01-03T07:11:13.084Z,85.27
2023-01-03T07:12:13.142Z,85.27
2023-01-03T07:13:13.055Z,85.27
2023-01-03T07:14:13.058Z,85.27
2023-01-03T07:15:13.099Z,85.27
2023-01-03T07:16:13.085Z,85.17
2023-01-03T07:17:13.030Z,85.27
2023-01-03T07:18:13.012Z,85.27
2023-01-03T07:19:13.006Z,85.27
2023-01-03T07:20:13.005Z,85.17
2023-01-03T07:21:13.000Z,85.37
2023-01-03T07:22:12.994Z,85.37
2023-01-03T07:23:12.966Z,85.47
2023-01-03T07:24:12.956Z,85.47
2023-01-03T07:25:12.970Z,85.58
2023-01-03T07:26:12.947Z,85.58
2023-01-03T07:27:12.932Z,85.58
2023-01-03T07:28:12.932Z,85.68
2023-01-03T07:29:12.898Z,85.78
2023-01-03T07:30:12.921Z,85.78
2023-01-03T07:31:12.929Z,85.78
2023-01-03T07:32:12.870Z,85.78
2023-01-03T07:33:12.867Z,85.89
2023-01-03T07:34:12.855Z,85.89
2023-01-03T07:35:12.856Z,85.89
2023-01-03T07:36:12.833Z,85.89
2023-01-03T07:37:12.817Z,85.78
2023-01-03T07:38:12.817Z,85.89
2023-01-03T07:39:12.793Z,85.78
2023-01-03T07:40:12.807Z,85.58
2023-01-03T07:41:12.800Z,85.37
2023-01-03T07:42:12.762Z,85.37
2023-01-03T07:43:12.753Z,85.37
2023-01-03T07:44:12.827Z,85.37
2023-01-03T07:45:12.742Z,85.27
2023-01-03T07:46:12.784Z,85.17
2023-01-03T07:47:12.713Z,85.17
2023-01-03T07:48:12.715Z,85.37
2023-01-03T07:49:12.791Z,85.37
2023-01-03T07:50:12.713Z,85.17
2023-01-03T07:51:12.665Z,85.06
2023-01-03T07:52:12.677Z,85.06
2023-01-03T07:53:12.639Z,84.75
2023-01-03T07:54:12.650Z,84.75
2023-01-03T07:55:12.650Z,84.65
2023-01-03T07:56:13.632Z,84.75
2023-01-03T07:57:12.620Z,84.86
2023-01-03T07:58:12.586Z,85.06
2023-01-03T07:59:12.576Z,85.06
2023-01-03T08:00:12.600Z,84.96
2023-01-03T08:01:12.772Z,84.96
2023-01-03T08:02:12.720Z,84.96
2023-01-03T08:03:12.742Z,85.06
2023-01-03T08:04:12.633Z,84.86
2023-01-03T08:05:12.612Z,84.86
2023-01-03T08:06:12.519Z,84.86
2023-01-03T08:07:12.508Z,84.96
2023-01-03T08:08:12.515Z,84.55
2023-01-03T08:09:12.489Z,84.23
2023-01-03T08:10:12.474Z,84.13
2023-01-03T08:11:12.495Z,84.23
2023-01-03T08:12:12.442Z,84.23
2023-01-03T08:13:12.431Z,84.09
2023-01-03T08:14:12.460Z,83.99
2023-01-03T08:15:12.452Z,83.89
2023-01-03T08:16:12.634Z,83.78
2023-01-03T08:17:12.418Z,83.78
2023-01-03T08:18:12.464Z,83.89
2023-01-03T08:19:12.368Z,83.78
2023-01-03T08:20:12.387Z,83.89
2023-01-03T08:21:12.403Z,83.89
2023-01-03T08:22:12.349Z,83.78
2023-01-03T08:23:12.355Z,83.58
2023-01-03T08:24:12.344Z,83.23
2023-01-03T08:25:12.325Z,83.03
2023-01-03T08:26:12.358Z,82.92
2023-01-03T08:27:12.292Z,82.82
2023-01-03T08:28:12.274Z,82.71
2023-01-03T08:29:12.291Z,82.71
2023-01-03T08:30:12.258Z,82.61
2023-01-03T08:31:12.306Z,82.57
2023-01-03T08:32:12.256Z,82.47
2023-01-03T08:33:12.231Z,82.26
2023-01-03T08:34:18.591Z,82.16
2023-01-03T08:35:12.223Z,82.06
2023-01-03T08:36:12.239Z,81.85
2023-01-03T08:37:12.222Z,81.85
2023-01-03T08:38:12.210Z,81.75
2023-01-03T08:39:12.165Z,81.75
2023-01-03T08:40:12.166Z,81.54
2023-01-03T08:41:12.189Z,81.44
2023-01-03T08:42:12.142Z,81.30
2023-01-03T08:43:12.143Z,81.20
2023-01-03T08:44:12.115Z,81.09
2023-01-03T08:45:12.148Z,80.89
2023-01-03T08:46:12.209Z,80.79
2023-01-03T08:47:12.133Z,80.47
2023-01-03T08:48:12.076Z,80.47
2023-01-03T08:49:12.070Z,80.58
2023-01-03T08:50:12.055Z,80.68
2023-01-03T08:51:12.112Z,80.79
2023-01-03T08:52:12.075Z,80.68
2023-01-03T08:53:12.053Z,80.58
2023-01-03T08:54:12.041Z,80.79
2023-01-03T08:55:12.015Z,80.58
2023-01-03T08:56:12.048Z,80.47
2023-01-03T08:57:11.984Z,80.16
2023-01-03T08:58:12.042Z,79.96
2023-01-03T08:59:11.961Z,80.16
2023-01-03T09:00:12.041Z,80.16
2023-01-03T09:01:12.186Z,80.16
2023-01-03T09:02:12.224Z,79.86
2023-01-03T09:03:12.249Z,79.86
2023-01-03T09:04:11.985Z,80.16
2023-01-03T09:05:11.914Z,80.37
2023-01-03T09:06:11.938Z,80.16
2023-01-03T09:07:11.903Z,80.06
2023-01-03T09:08:11.875Z,79.96
2023-01-03T09:09:11.856Z,79.65
2023-01-03T09:10:11.841Z,79.34
2023-01-03T09:11:11.887Z,79.44
2023-01-03T09:12:11.836Z,79.65
2023-01-03T09:13:11.825Z,79.65
2023-01-03T09:14:11.849Z,79.34
2023-01-03T09:15:11.819Z,79.24
2023-01-03T09:16:11.963Z,79.10
2023-01-03T09:17:11.773Z,78.89
2023-01-03T09:18:11.806Z,78.69
2023-01-03T09:19:11.782Z,78.69
2023-01-03T09:20:11.768Z,78.69
2023-01-03T09:21:11.755Z,78.38
2023-01-03T09:22:11.741Z,78.48
2023-01-03T09:23:11.731Z,78.38
2023-01-03T09:24:11.732Z,78.17
2023-01-03T09:25:11.721Z,78.07
2023-01-03T09:26:11.694Z,77.76
2023-01-03T09:27:11.677Z,77.45
2023-01-03T09:28:11.674Z,77.66
2023-01-03T09:29:11.651Z,77.66
2023-01-03T09:30:11.675Z,77.86
2023-01-03T09:31:11.732Z,78.28
2023-01-03T09:32:11.724Z,78.17
2023-01-03T09:33:11.605Z,77.97
2023-01-03T09:34:11.600Z,77.97
2023-01-03T09:35:12.547Z,77.66
2023-01-03T09:36:11.622Z,77.59
2023-01-03T09:37:11.566Z,77.69
2023-01-03T09:38:11.606Z,77.69
2023-01-03T09:39:11.564Z,77.90
2023-01-03T09:40:11.531Z,77.69
2023-01-03T09:41:11.555Z,77.08
2023-01-03T09:42:11.522Z,76.87
2023-01-03T09:43:11.517Z,76.97
2023-01-03T09:44:11.516Z,77.28
2023-01-03T09:45:11.487Z,77.08
2023-01-03T09:46:11.520Z,76.87
2023-01-03T09:47:11.538Z,76.97
2023-01-03T09:48:11.480Z,77.28
2023-01-03T09:49:11.432Z,77.08
2023-01-03T09:50:31.412Z,77.08
2023-01-03T09:51:25.656Z,77.18
2023-01-03T09:52:11.461Z,77.08
2023-01-03T09:53:11.455Z,76.97
2023-01-03T09:54:11.386Z,76.66
2023-01-03T09:55:11.399Z,76.66
2023-01-03T09:56:11.404Z,76.25
2023-01-03T09:57:11.352Z,76.25
2023-01-03T09:58:11.351Z,76.15
2023-01-03T09:59:11.347Z,75.94
2023-01-03T10:00:11.329Z,75.84
2023-01-03T10:01:11.467Z,75.53
2023-01-03T10:02:11.598Z,75.73
2023-01-03T10:03:11.404Z,75.43
2023-01-03T10:04:11.285Z,75.22
2023-01-03T10:05:11.272Z,75.22
2023-01-03T10:06:11.273Z,75.18
2023-01-03T10:07:11.283Z,74.98
2023-01-03T10:08:11.321Z,74.60
2023-01-03T10:09:11.243Z,74.71
2023-01-03T10:10:14.480Z,74.91
2023-01-03T10:11:11.207Z,74.80
2023-01-03T10:12:11.218Z,74.91
2023-01-03T10:13:14.781Z,75.12
2023-01-03T10:14:11.195Z,75.22
2023-01-03T10:15:11.174Z,75.01
2023-01-03T10:16:11.202Z,75.22
2023-01-03T10:17:11.220Z,75.22
2023-01-03T10:18:11.138Z,75.12
2023-01-03T10:19:11.161Z,74.91
2023-01-03T10:20:11.118Z,74.71
2023-01-03T10:21:11.118Z,74.71
2023-01-03T10:22:11.205Z,74.91
2023-01-03T10:23:11.140Z,74.80
2023-01-03T10:24:11.089Z,74.80
2023-01-03T10:25:11.065Z,74.71
2023-01-03T10:26:11.078Z,74.91
2023-01-03T10:27:11.048Z,74.91
2023-01-03T10:28:11.052Z,75.01
2023-01-03T10:29:11.049Z,75.22
2023-01-03T10:30:11.008Z,75.01
2023-01-03T10:31:11.027Z,75.12
2023-01-03T10:32:11.079Z,75.22
2023-01-03T10:33:11.011Z,75.29
2023-01-03T10:34:11.000Z,75.29
2023-01-03T10:35:10.955Z,75.18
2023-01-03T10:36:10.947Z,75.08
2023-01-03T10:37:10.931Z,74.98
2023-01-03T10:38:11.038Z,74.88
2023-01-03T10:39:10.937Z,74.98
2023-01-03T10:40:10.920Z,75.39
2023-01-03T10:41:10.898Z,75.70
2023-01-03T10:42:10.967Z,75.90
2023-01-03T10:43:10.885Z,76.11
2023-01-03T10:44:10.873Z,76.46
2023-01-03T10:45:10.849Z,76.63
2023-01-03T10:46:10.893Z,76.76
2023-01-03T10:47:10.883Z,77.08
2023-01-03T10:48:10.834Z,77.04
2023-01-03T10:49:28.331Z,77.14
2023-01-03T10:50:10.835Z,77.14
2023-01-03T10:51:10.791Z,77.00
2023-01-03T10:52:10.810Z,76.59
2023-01-03T10:53:10.776Z,76.39
2023-01-03T10:54:10.763Z,76.49
2023-01-03T10:55:10.752Z,76.35
2023-01-03T10:56:10.782Z,76.04
2023-01-03T10:57:10.764Z,75.94
2023-01-03T10:58:10.768Z,75.63
2023-01-03T10:59:10.699Z,75.29
2023-01-03T11:00:10.703Z,74.98
2023-01-03T11:01:10.732Z,74.67
2023-01-03T11:02:10.938Z,74.87
2023-01-03T11:03:10.930Z,74.74
2023-01-03T11:04:10.659Z,74.33
2023-01-03T11:05:10.715Z,74.22
2023-01-03T11:06:10.647Z,73.81
2023-01-03T11:07:10.677Z,74.02
2023-01-03T11:08:10.628Z,74.02
2023-01-03T11:09:10.617Z,74.02
2023-01-03T11:10:10.589Z,73.88
2023-01-03T11:11:10.584Z,73.47
2023-01-03T11:12:10.581Z,73.36
2023-01-03T11:13:10.618Z,73.71
2023-01-03T11:14:10.566Z,74.02
2023-01-03T11:15:10.556Z,74.33
2023-01-03T11:16:10.574Z,74.40
2023-01-03T11:17:10.630Z,73.98
2023-01-03T11:18:10.524Z,73.88
2023-01-03T11:19:10.495Z,73.85
2023-01-03T11:20:10.507Z,73.74
2023-01-03T11:21:10.497Z,73.54
2023-01-03T11:22:10.521Z,73.68
2023-01-03T11:23:10.457Z,73.98
2023-01-03T11:24:10.453Z,74.19
2023-01-03T11:25:10.437Z,74.63
2023-01-03T11:26:10.419Z,74.84
2023-01-03T11:27:10.447Z,75.04
2023-01-03T11:28:15.743Z,75.15
2023-01-03T11:29:10.460Z,74.95
2023-01-03T11:30:10.399Z,74.95
2023-01-03T11:31:10.383Z,74.74
2023-01-03T11:32:10.485Z,74.74
2023-01-03T11:33:10.357Z,74.74
2023-01-03T11:34:10.343Z,74.63
2023-01-03T11:35:25.845Z,74.22
2023-01-03T11:36:10.324Z,74.43
2023-01-03T11:37:10.359Z,74.33
2023-01-03T11:38:10.291Z,74.33
2023-01-03T11:39:15.356Z,74.43
2023-01-03T11:40:10.282Z,74.43
2023-01-03T11:41:10.290Z,74.74
2023-01-03T11:42:10.273Z,74.98
2023-01-03T11:43:10.253Z,75.12
2023-01-03T11:44:10.237Z,75.12
2023-01-03T11:45:10.266Z,75.32
2023-01-03T11:46:10.263Z,75.52
2023-01-03T11:47:10.269Z,75.52
2023-01-03T11:48:10.200Z,75.63
2023-01-03T11:49:10.208Z,75.32
2023-01-03T11:50:10.173Z,75.32
2023-01-03T11:51:10.176Z,75.22
2023-01-03T11:52:10.175Z,75.42
2023-01-03T11:53:10.176Z,75.12
2023-01-03T11:54:10.122Z,75.12
2023-01-03T11:55:10.148Z,74.80
2023-01-03T11:56:10.129Z,74.80
2023-01-03T11:57:10.155Z,74.77
2023-01-03T11:58:10.104Z,74.77
2023-01-03T11:59:10.085Z,74.87
2023-01-03T12:00:10.108Z,74.87
2023-01-03T12:01:10.095Z,74.98
2023-01-03T12:02:10.235Z,74.74
2023-01-03T12:03:10.317Z,74.43
2023-01-03T12:04:10.162Z,74.53
2023-01-03T12:05:10.028Z,74.77
2023-01-03T12:06:10.008Z,75.08
2023-01-03T12:07:45.714Z,75.29
2023-01-03T12:08:10.029Z,75.39
2023-01-03T12:09:10.024Z,75.49
2023-01-03T12:10:09.984Z,75.49
2023-01-03T12:11:09.958Z,75.49
2023-01-03T12:12:10.005Z,75.49
2023-01-03T12:13:09.991Z,75.39
2023-01-03T12:14:09.926Z,74.98
2023-01-03T12:15:09.920Z,74.98
2023-01-03T12:16:09.972Z,74.98
2023-01-03T12:17:09.973Z,74.98
2023-01-03T12:18:09.888Z,74.77
2023-01-03T12:19:12.620Z,74.87
2023-01-03T12:20:09.896Z,74.87
2023-01-03T12:21:09.888Z,74.87
2023-01-03T12:22:09.869Z,74.67
2023-01-03T12:23:09.917Z,74.57
2023-01-03T12:24:09.838Z,74.22
2023-01-03T12:25:09.812Z,73.91
2023-01-03T12:26:09.850Z,74.12
2023-01-03T12:27:09.864Z,74.15
2023-01-03T12:28:09.788Z,74.15
2023-01-03T12:29:09.773Z,74.05
2023-01-03T12:30:09.771Z,74.26
2023-01-03T12:31:09.832Z,74.15
2023-01-03T12:32:09.796Z,74.15
2023-01-03T12:33:09.752Z,73.91
2023-01-03T12:34:09.716Z,73.64
2023-01-03T12:35:09.754Z,73.44
2023-01-03T12:36:09.727Z,73.23
2023-01-03T12:37:09.737Z,73.74
2023-01-03T12:38:09.720Z,73.33
2023-01-03T12:39:09.677Z,73.36
2023-01-03T12:40:09.659Z,73.47
2023-01-03T12:41:09.674Z,73.68
2023-01-03T12:42:09.646Z,73.88
2023-01-03T12:43:09.677Z,73.57
2023-01-03T12:44:09.630Z,73.47
2023-01-03T12:45:09.626Z,73.47
2023-01-03T12:46:12.939Z,73.57
2023-01-03T12:47:09.701Z,73.47
2023-01-03T12:48:09.587Z,73.44
2023-01-03T12:49:09.563Z,73.33
2023-01-03T12:50:09.551Z,73.02
2023-01-03T12:51:09.538Z,72.61
2023-01-03T12:52:15.014Z,72.20